Time;durP1;ratioP1;P1;durP2;ratioP2;P2;SDS_P1;SDS_P2;PMS_P1;PMS_P2;Temp;Humidity;BMP_temperature;BMP_pressure;BME280_temperature;BME280_humidity;BME280_pressure;Samples;Min_cycle;Max_cycle;Signal;HPM_P1;HPM_P2
2022/01/13 00:04:56;;;;;;;39.88;20.85;;;;;;;-2.93;85.45;99305.06;10404926;28;20169;-60
2022/01/13 00:09:55;;;;;;;44.28;22.33;;;;;;;-2.92;85.73;99300.09;10412378;28;20473;-60
2022/01/13 00:25:20;;;;;;;48.25;24.98;;;;;;;-2.89;85.22;99301.13;10407651;28;20067;-60
2022/01/13 00:30:20;;;;;;;58.03;31.40;;;;;;;-2.89;85.05;99313.81;10406300;28;20124;-60
2022/01/13 00:35:19;;;;;;;52.35;28.98;;;;;;;-3.00;84.90;99310.44;10408881;28;20044;-60
2022/01/13 00:40:18;;;;;;;49.40;29.48;;;;;;;-3.20;85.33;99307.25;10416473;28;20090;-60
2022/01/13 00:45:17;;;;;;;51.75;26.35;;;;;;;-3.14;85.55;99329.69;10418213;28;20052;-60
2022/01/13 00:50:18;;;;;;;36.78;20.80;;;;;;;-3.28;85.22;99342.94;10415508;28;20040;-60
2022/01/13 00:55:21;;;;;;;52.30;25.17;;;;;;;-3.57;86.33;99337.34;10418715;28;20480;-59
2022/01/13 01:00:21;;;;;;;47.53;21.65;;;;;;;-3.79;86.63;99342.38;10419908;28;20045;-59
2022/01/13 01:05:20;;;;;;;53.40;25.33;;;;;;;-3.84;86.66;99343.63;10418141;28;20040;-60
2022/01/13 01:10:20;;;;;;;52.55;25.70;;;;;;;-4.16;87.81;99347.72;10418891;28;20553;-60
2022/01/13 01:15:20;;;;;;;51.63;26.20;;;;;;;-4.36;87.07;99346.09;10417445;28;20571;-59
2022/01/13 01:20:20;;;;;;;65.53;29.83;;;;;;;-4.40;87.16;99357.59;10418457;28;20075;-59
2022/01/13 01:35:27;;;;;;;69.00;28.35;;;;;;;-4.77;88.90;99351.09;10419543;28;20033;-59
2022/01/13 01:40:26;;;;;;;75.05;31.92;;;;;;;-4.62;87.24;99350.75;10418672;28;20067;-59
2022/01/13 01:45:32;;;;;;;55.13;23.15;;;;;;;-4.84;86.83;99352.22;10416102;28;20060;-59
2022/01/13 01:50:36;;;;;;;58.33;26.08;;;;;;;-4.84;85.99;99342.09;10414577;28;20067;-60
2022/01/13 01:55:36;;;;;;;66.68;29.05;;;;;;;-4.82;85.47;99345.66;10419150;28;20515;-60
2022/01/13 02:00:35;;;;;;;81.60;35.67;;;;;;;-4.79;85.84;99339.94;10398916;28;20071;-59
2022/01/13 02:05:33;;;;;;;;;;;;;;;-4.89;83.83;99338.28;10377566;28;20068;-60
2022/01/13 02:10:33;;;;;;;58.17;27.13;;;;;;;-4.73;85.05;99343.88;10393699;28;20007;-60
2022/01/13 02:15:35;;;;;;;56.83;26.00;;;;;;;-4.75;84.52;99327.69;10414958;28;20087;-60
2022/01/13 02:20:44;;;;;;;48.10;20.00;;;;;;;-4.57;83.51;99343.53;10416200;28;20055;-60
2022/01/13 02:25:43;;;;;;;;;;;;;;;-4.55;83.03;99336.97;10418522;28;20064;-59
2022/01/13 02:30:44;;;;;;;51.13;24.20;;;;;;;-4.57;83.67;99327.47;10415030;28;19964;-60
2022/01/13 02:35:43;;;;;;;48.13;23.83;;;;;;;-4.42;82.10;99343.91;10416512;28;20080;-59
2022/01/13 02:40:43;;;;;;;50.45;24.48;;;;;;;-4.26;82.88;99352.03;10416153;28;20025;-60
2022/01/13 02:45:59;;;;;;;;;;;;;;;-4.22;81.34;99350.66;10409793;28;20075;-60
2022/01/13 02:50:59;;;;;;;41.00;18.88;;;;;;;-4.20;81.36;99339.88;10415937;28;19990;-59
2022/01/13 02:56:04;;;;;;;45.90;20.70;;;;;;;-4.22;82.35;99338.84;10388447;28;20068;-60
2022/01/13 03:01:05;;;;;;;36.65;18.83;;;;;;;-4.22;81.36;99326.19;10374139;28;20079;-60
2022/01/13 03:06:36;;;;;;;33.97;18.48;;;;;;;-4.07;81.50;99333.25;10373038;28;20052;-60
2022/01/13 03:11:38;;;;;;;43.17;20.92;;;;;;;-4.01;81.09;99343.91;10374231;28;20079;-60
2022/01/13 03:16:42;;;;;;;39.05;21.13;;;;;;;-4.11;80.60;99347.34;10397761;28;20063;-59
2022/01/13 03:21:41;;;;;;;43.17;20.15;;;;;;;-4.16;80.33;99347.72;10414049;28;20459;-59
2022/01/13 03:26:42;;;;;;;43.30;21.73;;;;;;;-4.11;79.83;99351.53;10414198;28;20412;-59
2022/01/13 03:31:46;;;;;;;39.80;19.08;;;;;;;-4.09;79.94;99340.75;10414340;28;20076;-60
2022/01/13 03:36:45;;;;;;;50.00;24.35;;;;;;;-4.05;80.28;99342.75;10414052;28;20499;-60
2022/01/13 03:41:44;;;;;;;37.13;17.70;;;;;;;-4.07;79.61;99344.28;10414708;28;20071;-59
2022/01/13 03:46:44;;;;;;;36.22;18.20;;;;;;;-4.15;79.93;99337.72;10410673;28;20068;-60
2022/01/13 03:51:55;;;;;;;40.08;21.05;;;;;;;-4.13;80.33;99333.66;10414372;28;20060;-59
2022/01/13 03:57:48;;;;;;;43.75;21.27;;;;;;;-4.03;80.19;99347.97;10411263;28;20095;-59
2022/01/13 04:02:47;;;;;;;49.90;25.55;;;;;;;-4.13;79.78;99342.91;10412941;28;20075;-59
2022/01/13 04:07:46;;;;;;;41.65;20.90;;;;;;;-4.41;77.51;99355.84;10414457;28;20033;-60
2022/01/13 04:12:45;;;;;;;48.22;24.77;;;;;;;-4.37;78.08;99362.94;10413867;28;20033;-59
2022/01/13 04:17:44;;;;;;;42.38;22.20;;;;;;;-4.36;78.73;99358.75;10387699;28;20029;-59
2022/01/13 04:22:44;;;;;;;37.90;19.23;;;;;;;-4.50;77.91;99365.22;10421684;28;20072;-60
2022/01/13 04:27:44;;;;;;;45.42;22.17;;;;;;;-4.53;77.55;99363.31;10421649;28;20094;-60
2022/01/13 04:32:43;;;;;;;45.78;24.10;;;;;;;-4.46;79.06;99362.19;10420391;28;20075;-59
2022/01/13 04:37:42;;;;;;;48.95;24.90;;;;;;;-4.46;77.27;99362.19;10421797;28;20071;-59
2022/01/13 04:42:43;;;;;;;51.88;26.10;;;;;;;-4.43;78.27;99364.97;10418775;28;20039;-59
2022/01/13 04:47:42;;;;;;;44.90;23.02;;;;;;;-4.44;78.41;99360.66;10418315;28;20068;-59
2022/01/13 04:52:41;;;;;;;49.17;23.63;;;;;;;-4.40;78.04;99363.53;10416982;28;20048;-60
2022/01/13 04:57:40;;;;;;;74.40;38.72;;;;;;;-4.44;77.95;99365.72;10419591;28;20573;-60
2022/01/13 05:02:39;;;;;;;46.47;22.90;;;;;;;-4.59;77.21;99372.03;10417817;28;20162;-60
2022/01/13 05:07:38;;;;;;;49.10;26.23;;;;;;;-4.51;78.51;99381.16;10420447;28;20036;-59
2022/01/13 05:12:43;;;;;;;42.25;22.15;;;;;;;-4.69;78.29;99381.38;10418614;28;20068;-59
2022/01/13 05:22:54;;;;;;;52.90;28.65;;;;;;;-4.66;78.32;99375.69;10394501;28;20224;-59
2022/01/13 05:27:53;;;;;;;45.70;22.92;;;;;;;-4.64;79.17;99380.13;10379906;28;20868;-59
2022/01/13 05:32:52;;;;;;;166.48;67.05;;;;;;;-4.67;79.76;99382.41;10408280;28;20425;-60
2022/01/13 05:37:51;;;;;;;44.20;20.50;;;;;;;-4.71;79.00;99393.03;10420011;28;20075;-59
2022/01/13 05:42:51;;;;;;;55.70;29.00;;;;;;;-4.92;80.04;99399.69;10418158;28;20071;-59
2022/01/13 05:47:50;;;;;;;;;;;;;;;-4.89;79.87;99406.66;10414091;28;20060;-59
2022/01/13 05:52:49;;;;;;;39.55;19.95;;;;;;;-5.15;80.56;99379.97;10417472;28;19989;-59
2022/01/13 05:57:48;;;;;;;;;;;;;;;-5.10;81.82;99419.25;10419304;28;20075;-59
2022/01/13 06:02:47;;;;;;;54.53;26.40;;;;;;;-5.19;82.00;99402.34;10413200;28;19919;-59
2022/01/13 06:07:46;;;;;;;59.28;26.85;;;;;;;-5.04;81.55;99418.88;10414896;28;20071;-59
2022/01/13 06:12:46;;;;;;;;;;;;;;;-4.90;80.97;99422.59;10417271;28;20480;-59
2022/01/13 06:17:46;;;;;;;67.60;32.65;;;;;;;-4.82;80.95;99419.06;10418192;28;19946;-60
2022/01/13 06:22:47;;;;;;;53.15;24.88;;;;;;;-4.73;81.67;99419.00;10417128;28;20471;-60
2022/01/13 06:27:46;;;;;;;52.22;25.58;;;;;;;-4.74;80.12;99428.22;10417104;28;20496;-60
2022/01/13 06:32:46;;;;;;;74.13;37.55;;;;;;;-4.80;80.74;99425.16;10412697;28;20083;-60
2022/01/13 06:37:45;;;;;;;58.40;30.85;;;;;;;-4.58;80.66;99432.06;10413608;28;20067;-60
2022/01/13 06:42:44;;;;;;;48.03;24.13;;;;;;;-4.61;80.48;99428.53;10415238;28;20040;-60
2022/01/13 06:47:43;;;;;;;44.00;19.40;;;;;;;-4.77;78.73;99449.84;10430842;28;20033;-60
2022/01/13 06:52:43;;;;;;;66.55;31.60;;;;;;;-4.77;79.36;99460.91;10416044;28;20071;-60
2022/01/13 06:57:42;;;;;;;75.82;40.47;;;;;;;-4.62;80.46;99451.19;10414106;28;20502;-60
2022/01/13 07:02:41;;;;;;;54.28;25.25;;;;;;;-4.56;80.32;99463.47;10413225;28;20042;-60
2022/01/13 07:07:40;;;;;;;48.03;23.92;;;;;;;-4.38;80.28;99470.13;10413014;28;20087;-60
2022/01/13 07:12:41;;;;;;;49.80;31.75;;;;;;;-4.07;80.02;99475.22;10413882;28;20060;-60
2022/01/13 07:17:40;;;;;;;63.45;35.17;;;;;;;-4.09;79.60;99476.75;10415685;28;20072;-60
2022/01/13 07:22:40;;;;;;;;;;;;;;;-3.97;80.02;99472.72;10415249;28;20679;-60
2022/01/13 07:27:40;;;;;;;51.22;25.55;;;;;;;-3.74;79.71;99479.69;10376220;28;19948;-60
2022/01/13 07:32:40;;;;;;;46.38;23.52;;;;;;;-3.55;80.38;99479.56;10400357;28;20083;-60
2022/01/13 07:37:39;;;;;;;38.78;19.75;;;;;;;-3.52;78.43;99489.09;10413918;28;20067;-60
2022/01/13 07:42:41;;;;;;;52.67;26.98;;;;;;;-3.79;76.51;99509.78;10413323;28;20063;-60
2022/01/13 07:47:41;;;;;;;49.30;23.48;;;;;;;-3.92;75.86;99526.38;10414284;28;20067;-60
2022/01/13 07:52:41;;;;;;;45.53;23.27;;;;;;;-4.06;76.36;99533.69;10409285;28;20067;-60
2022/01/13 07:57:40;;;;;;;46.63;23.23;;;;;;;-3.84;77.29;99522.81;10414973;28;20060;-59
2022/01/13 08:02:40;;;;;;;43.53;24.23;;;;;;;-3.72;76.17;99533.09;10412866;28;20060;-60
2022/01/13 08:07:39;;;;;;;42.90;21.80;;;;;;;-3.66;75.64;99539.56;10408172;28;20053;-60
2022/01/13 08:12:39;;;;;;;49.60;27.65;;;;;;;-3.80;74.98;99543.47;10410962;28;20516;-60
2022/01/13 08:23:01;;;;;;;59.78;31.50;;;;;;;-3.46;75.50;99551.38;10413186;28;20068;-60
2022/01/13 08:28:00;;;;;;;59.65;28.83;;;;;;;-3.26;76.45;99536.91;10413924;28;20056;-60
2022/01/13 08:32:59;;;;;;;43.80;22.92;;;;;;;-3.09;75.33;99523.91;10412230;28;20053;-60
2022/01/13 08:38:05;;;;;;;39.40;18.90;;;;;;;-2.89;75.12;99525.53;10414273;28;20052;-60
2022/01/13 08:43:04;;;;;;;38.25;19.88;;;;;;;-2.62;76.14;99533.56;10413048;28;20093;-60
2022/01/13 08:48:03;;;;;;;50.83;27.63;;;;;;;-2.32;75.90;99535.97;10412760;28;20044;-60
2022/01/13 08:53:03;;;;;;;39.95;21.83;;;;;;;-2.25;75.10;99522.06;10412500;28;20067;-60
2022/01/13 08:58:02;;;;;;;47.30;22.35;;;;;;;-2.19;75.02;99537.81;10413013;28;20075;-60
2022/01/13 09:03:01;;;;;;;;;;;;;;;-2.14;74.13;99531.44;10420013;28;20056;-60
2022/01/13 09:08:02;;;;;;;35.97;20.05;;;;;;;-1.93;75.20;99521.13;10421094;28;20357;-61
2022/01/13 09:13:01;;;;;;;38.40;20.13;;;;;;;-1.62;74.41;99501.44;10419017;28;20080;-61
2022/01/13 09:18:07;;;;;;;;;;;;;;;-1.30;74.66;99497.84;10421790;28;20060;-61
2022/01/13 09:23:07;;;;;;;63.15;35.17;;;;;;;-1.44;70.02;99496.81;10419124;28;19959;-61
2022/01/13 09:28:08;;;;;;;48.72;24.85;;;;;;;-1.51;72.63;99489.50;10419148;28;20491;-61
2022/01/13 09:33:08;;;;;;;55.53;32.28;;;;;;;-1.43;70.24;99493.50;10409036;28;20068;-61
2022/01/13 09:38:07;;;;;;;;;;;;;;;-1.47;71.16;99499.13;10418046;28;20055;-62
2022/01/13 09:43:06;;;;;;;53.47;26.95;;;;;;;-1.32;72.27;99477.34;10391515;28;19936;-61
2022/01/13 09:48:05;;;;;;;44.63;22.83;;;;;;;-1.02;71.48;99459.97;10402373;28;20069;-61
2022/01/13 09:53:04;;;;;;;43.15;24.05;;;;;;;-0.97;71.15;99448.44;10417438;28;20060;-62
2022/01/13 09:58:10;;;;;;;54.72;31.77;;;;;;;-1.02;67.44;99419.22;10403838;28;20119;-62
2022/01/13 10:03:15;;;;;;;42.03;24.83;;;;;;;-1.15;70.67;99414.00;10404070;28;20654;-62
2022/01/13 10:08:14;;;;;;;38.92;21.70;;;;;;;-0.94;72.13;99407.88;10415561;28;20502;-62
2022/01/13 10:13:22;;;;;;;41.88;22.05;;;;;;;-0.64;71.49;99392.97;10414763;28;20095;-62
2022/01/13 10:18:44;;;;;;;44.33;23.65;;;;;;;-0.60;71.44;99351.63;10400418;28;20808;-62
2022/01/13 10:24:12;;;;;;;39.38;20.48;;;;;;;-0.25;71.36;99369.31;10404894;28;20452;-62
2022/01/13 10:29:13;;;;;;;36.13;19.42;;;;;;;-0.20;70.44;99359.44;10408626;28;20060;-62
2022/01/13 10:34:17;;;;;;;37.78;20.45;;;;;;;-0.40;67.13;99338.53;10415838;28;20064;-62
2022/01/13 10:39:16;;;;;;;34.95;18.38;;;;;;;-0.33;67.81;99328.78;10416651;28;20597;-62
2022/01/13 10:44:18;;;;;;;51.88;32.58;;;;;;;-0.71;65.46;99329.59;10393151;28;20395;-63
2022/01/13 10:49:17;;;;;;;28.10;16.40;;;;;;;-0.97;68.30;99310.84;10416122;28;20503;-63
2022/01/13 10:54:24;;;;;;;33.47;18.30;;;;;;;-1.29;69.91;99294.19;10420516;28;20492;-62
2022/01/13 10:59:35;;;;;;;37.55;21.58;;;;;;;-1.14;70.61;99336.81;10417540;28;20832;-62
2022/01/13 11:04:34;;;;;;;28.50;15.95;;;;;;;-1.17;70.81;99342.56;10413468;28;20065;-61
2022/01/13 11:09:33;;;;;;;30.15;17.67;;;;;;;-1.23;71.20;99331.97;10415229;28;20028;-61
2022/01/13 11:14:40;;;;;;;36.10;21.10;;;;;;;-1.33;69.51;99327.91;10414637;28;20039;-61
2022/01/13 11:19:41;;;;;;;29.55;18.13;;;;;;;-1.59;65.80;99332.75;10415495;28;20807;-61
2022/01/13 11:24:44;;;;;;;41.28;22.65;;;;;;;-2.03;66.00;99320.22;10413362;28;20056;-61
2022/01/13 11:29:45;;;;;;;45.90;25.85;;;;;;;-2.54;66.43;99291.06;10414298;28;20090;-60
2022/01/13 11:34:46;;;;;;;39.67;21.40;;;;;;;-2.55;66.68;99333.38;10413564;28;20133;-60
2022/01/13 11:39:45;;;;;;;39.90;21.10;;;;;;;-2.77;66.10;99338.47;10413809;28;20056;-60
2022/01/13 11:44:44;;;;;;;;;;;;;;;-2.92;66.58;99360.16;10396290;28;20523;-60
2022/01/13 11:50:04;;;;;;;44.92;24.20;;;;;;;-2.85;66.73;99356.44;10412972;28;19977;-60
2022/01/13 11:55:18;;;;;;;40.63;19.88;;;;;;;-2.99;65.08;99374.06;10389112;28;20130;-60
2022/01/13 12:00:21;;;;;;;36.83;18.35;;;;;;;-3.00;64.75;99357.03;10386557;28;20063;-60
2022/01/13 12:05:22;;;;;;;34.13;18.88;;;;;;;-2.85;67.31;99315.78;10414646;28;20056;-60
2022/01/13 12:10:21;;;;;;;28.98;15.25;;;;;;;-2.54;68.19;99319.91;10413624;28;20059;-60
2022/01/13 12:15:26;;;;;;;28.15;15.38;;;;;;;-2.26;67.00;99321.97;10412670;28;20032;-60
2022/01/13 12:20:26;;;;;;;32.00;17.30;;;;;;;-2.32;65.27;99329.13;10376528;28;20071;-60
2022/01/13 12:25:31;;;;;;;34.50;17.35;;;;;;;-2.18;68.08;99338.69;10389925;28;20441;-60
2022/01/13 12:30:32;;;;;;;34.50;17.45;;;;;;;-1.97;69.93;99336.84;10405253;28;20508;-60
2022/01/13 12:35:33;;;;;;;54.42;25.95;;;;;;;-1.60;72.73;99354.78;10419175;28;20423;-60
2022/01/13 12:40:44;;;;;;;55.97;28.23;;;;;;;-1.70;65.10;99357.47;10398271;28;20044;-60
2022/01/13 12:45:44;;;;;;;49.40;25.15;;;;;;;-1.68;66.19;99354.25;10404689;28;20432;-60
2022/01/13 12:50:44;;;;;;;;;;;;;;;-1.74;68.08;99319.84;10392151;28;20052;-60
2022/01/13 12:55:56;;;;;;;48.40;26.25;;;;;;;-1.67;69.09;99315.28;10412454;28;19955;-60
2022/01/13 13:00:58;;;;;;;34.40;18.70;;;;;;;-1.60;70.23;99315.72;10399848;28;20517;-60
2022/01/13 13:05:57;;;;;;;44.47;23.88;;;;;;;-1.44;70.95;99318.59;10387791;28;20075;-60
2022/01/13 13:11:00;;;;;;;;;;;;;;;-1.24;69.60;99320.00;10395733;28;20582;-60
2022/01/13 13:16:10;;;;;;;32.85;17.65;;;;;;;-1.54;70.66;99272.88;10414203;28;20403;-60
2022/01/13 13:21:10;;;;;;;33.47;19.05;;;;;;;-1.33;71.84;99320.25;10397588;28;20056;-60
2022/01/13 13:26:14;;;;;;;39.75;22.60;;;;;;;-1.27;70.94;99313.03;10399200;28;20086;-60
2022/01/13 13:31:27;;;;;;;32.10;18.75;;;;;;;-1.30;72.18;99301.75;10416292;28;20079;-60
2022/01/13 13:36:28;;;;;;;29.05;15.98;;;;;;;-1.41;72.32;99301.00;10413587;28;20066;-60
2022/01/13 13:41:33;;;;;;;28.65;15.73;;;;;;;-1.64;71.00;99287.50;10377408;28;20056;-60
2022/01/13 13:46:33;;;;;;;30.83;16.80;;;;;;;-1.74;72.76;99295.25;10404240;28;20064;-60
2022/01/13 13:51:34;;;;;;;31.20;17.67;;;;;;;-1.90;73.46;99287.28;10410840;28;20517;-60
2022/01/13 13:56:37;;;;;;;34.30;19.02;;;;;;;-1.98;73.19;99296.91;10399197;28;20099;-60
2022/01/13 14:01:38;;;;;;;43.33;22.35;;;;;;;-2.17;73.25;99317.59;10386965;28;20052;-60
2022/01/13 14:06:42;;;;;;;43.65;22.70;;;;;;;-2.32;74.01;99326.59;10411233;28;20071;-60
2022/01/13 14:11:49;;;;;;;41.33;21.48;;;;;;;-2.39;74.63;99324.38;10395392;28;20064;-60
2022/01/13 14:16:50;;;;;;;33.28;18.40;;;;;;;-2.51;74.11;99330.28;10406031;28;20052;-60
2022/01/13 14:21:52;;;;;;;35.78;18.55;;;;;;;-2.51;74.65;99348.09;10393531;28;20044;-60
2022/01/13 14:26:51;;;;;;;46.30;25.08;;;;;;;-2.56;73.22;99357.03;10389257;28;20068;-60
2022/01/13 14:31:50;;;;;;;45.30;25.08;;;;;;;-2.45;74.13;99356.94;10384411;28;20040;-60
2022/01/13 14:36:49;;;;;;;43.10;22.42;;;;;;;-2.33;74.58;99370.59;10382885;28;20573;-60
2022/01/13 14:41:48;;;;;;;33.90;17.92;;;;;;;-2.30;75.13;99358.09;10393134;28;20044;-59
2022/01/13 14:46:56;;;;;;;34.55;19.63;;;;;;;-2.26;74.46;99370.28;10384731;28;20038;-60
2022/01/13 14:51:55;;;;;;;41.00;21.10;;;;;;;-2.27;74.61;99368.50;10413003;28;20511;-60
2022/01/13 14:56:54;;;;;;;42.78;24.83;;;;;;;-2.49;74.67;99363.47;10379770;28;20087;-60
2022/01/13 15:01:54;;;;;;;41.40;22.35;;;;;;;-2.50;75.94;99351.50;10395239;28;20589;-60
2022/01/13 15:06:52;;;;;;;;;;;;;;;-2.47;76.36;99366.13;10413208;28;20069;-60
2022/01/13 15:11:52;;;;;;;41.95;22.52;;;;;;;-2.45;77.83;99369.66;10412797;28;20007;-60
2022/01/13 15:16:52;;;;;;;45.97;24.25;;;;;;;-2.45;77.97;99370.56;10412757;28;20056;-60
2022/01/13 15:21:51;;;;;;;37.70;19.52;;;;;;;-2.57;78.22;99349.28;10411360;28;20056;-60
2022/01/13 15:26:50;;;;;;;45.75;22.48;;;;;;;-2.57;78.41;99364.53;10412230;28;20063;-60
2022/01/13 15:31:49;;;;;;;47.78;24.02;;;;;;;-2.59;78.75;99368.59;10412692;28;20493;-60
2022/01/13 15:36:48;;;;;;;53.53;28.73;;;;;;;-2.65;78.69;99360.53;10409855;28;20384;-60
2022/01/13 15:41:48;;;;;;;58.92;33.15;;;;;;;-2.76;78.97;99352.06;10410575;28;20098;-60
2022/01/13 15:46:47;;;;;;;55.40;29.60;;;;;;;-2.92;78.72;99350.00;10408928;28;20048;-60
2022/01/13 15:51:46;;;;;;;46.45;25.90;;;;;;;-3.05;78.74;99358.31;10404954;28;20033;-60
2022/01/13 15:56:45;;;;;;;70.10;38.72;;;;;;;-3.24;78.23;99355.13;10385999;28;20036;-60
2022/01/13 16:01:44;;;;;;;60.38;31.83;;;;;;;-3.40;78.10;99348.81;10395488;28;20028;-60
2022/01/13 16:06:43;;;;;;;60.45;35.15;;;;;;;-3.44;77.66;99362.03;10391771;28;20060;-60
2022/01/13 16:11:41;;;;;;;57.30;31.50;;;;;;;-3.59;78.39;99354.09;10397918;28;20032;-60
2022/01/13 16:16:41;;;;;;;80.75;47.28;;;;;;;-3.66;78.05;99358.56;10399957;28;20513;-59
2022/01/13 16:21:40;;;;;;;93.82;54.22;;;;;;;-3.81;78.09;99364.16;10406650;28;20063;-60
2022/01/13 16:26:39;;;;;;;85.45;45.50;;;;;;;-4.05;78.09;99357.97;10403808;28;20374;-60
2022/01/13 16:31:38;;;;;;;78.00;42.75;;;;;;;-4.06;79.23;99383.22;10365556;28;1219060;-60
2022/01/13 16:36:37;;;;;;;62.00;33.40;;;;;;;-4.31;79.09;99388.78;10405764;28;20028;-60
2022/01/13 16:41:36;;;;;;;58.17;28.65;;;;;;;-4.62;78.31;99382.81;10405874;28;20039;-60
2022/01/13 16:46:35;;;;;;;55.15;30.27;;;;;;;-4.82;78.58;99370.97;10391191;28;20036;-60
2022/01/13 16:51:34;;;;;;;63.60;37.58;;;;;;;-4.73;78.97;99403.78;10381824;28;20052;-60
2022/01/13 16:56:33;;;;;;;72.40;39.28;;;;;;;-4.87;78.22;99408.56;10402531;28;20056;-60
2022/01/13 17:01:32;;;;;;;62.08;32.97;;;;;;;-5.09;78.59;99410.00;10407614;28;20031;-60
2022/01/13 17:06:31;;;;;;;57.88;31.15;;;;;;;-5.21;78.74;99403.84;10409403;28;20040;-60
2022/01/13 17:11:30;;;;;;;56.90;28.92;;;;;;;-5.30;78.25;99403.97;10409773;28;20025;-60
2022/01/13 17:16:29;;;;;;;54.58;28.08;;;;;;;-5.46;79.23;99373.91;10409089;28;20060;-60
2022/01/13 17:21:29;;;;;;;45.75;24.10;;;;;;;-5.69;79.25;99356.72;10415112;28;20538;-59
2022/01/13 17:26:28;;;;;;;54.35;26.83;;;;;;;-5.61;80.00;99373.47;10414629;28;20068;-60
2022/01/13 17:31:27;;;;;;;56.25;26.33;;;;;;;-5.64;79.06;99374.81;10413380;28;20051;-59
2022/01/13 17:36:26;;;;;;;59.33;29.08;;;;;;;-5.66;79.95;99354.44;10416396;28;20527;-60
2022/01/13 17:41:25;;;;;;;65.43;30.92;;;;;;;-5.72;80.28;99347.22;10415449;28;20048;-60
2022/01/13 17:46:26;;;;;;;61.90;30.10;;;;;;;-5.74;79.69;99342.78;10416650;28;20024;-60
2022/01/13 17:51:25;;;;;;;59.10;29.60;;;;;;;-5.77;80.58;99337.47;10397796;28;20482;-60
2022/01/13 17:56:24;;;;;;;64.35;34.20;;;;;;;-5.80;80.18;99327.97;10415621;28;20418;-60
2022/01/13 18:01:23;;;;;;;95.03;45.58;;;;;;;-5.90;80.34;99326.25;10414607;28;20033;-60
2022/01/13 18:06:22;;;;;;;;;;;;;;;-5.91;80.63;99328.66;10416108;28;20079;-60
2022/01/13 18:11:21;;;;;;;52.90;26.73;;;;;;;-6.00;80.03;99318.63;10413513;28;19924;-60
2022/01/13 18:16:20;;;;;;;;;;;;;;;-6.02;79.78;99325.16;10403495;28;20076;-60
2022/01/13 18:21:19;;;;;;;72.17;41.43;;;;;;;-6.12;79.57;99317.53;10375315;28;19947;-60
2022/01/13 18:26:18;;;;;;;;;;;;;;;-6.15;79.97;99319.78;10412391;28;20052;-60
2022/01/13 18:31:17;;;;;;;81.03;43.95;;;;;;;-6.17;80.10;99321.31;10411195;28;19916;-60
2022/01/13 18:36:16;;;;;;;;;;;;;;;-6.23;80.08;99313.16;10415600;28;20064;-60
2022/01/13 18:41:15;;;;;;;109.17;54.83;;;;;;;-6.27;80.80;99295.94;10412776;28;19912;-60
2022/01/13 18:46:14;;;;;;;;;;;;;;;-6.31;80.77;99295.69;10413240;28;20575;-60
2022/01/13 18:51:13;;;;;;;130.02;61.90;;;;;;;-6.46;81.04;99301.88;10413190;28;19966;-59
2022/01/13 18:56:12;;;;;;;149.90;93.72;;;;;;;-6.67;81.10;99293.25;10411723;28;20094;-60
2022/01/13 19:01:11;;;;;;;;;;;;;;;-6.65;81.79;99314.47;10410815;28;20047;-60
2022/01/13 19:06:10;;;;;;;88.27;41.63;;;;;;;-6.60;81.63;99314.88;10412896;28;20004;-60
2022/01/13 19:11:09;;;;;;;;;;;;;;;-6.60;81.66;99284.59;10410253;28;20063;-60
2022/01/13 19:16:10;;;;;;;80.83;39.57;;;;;;;-6.59;81.58;99271.25;10412336;28;19912;-60
2022/01/13 19:21:10;;;;;;;91.15;45.78;;;;;;;-6.60;81.47;99269.44;10396977;28;20078;-60
2022/01/13 19:26:09;;;;;;;98.80;51.85;;;;;;;-6.62;81.60;99288.63;10390923;28;20484;-60
2022/01/13 19:31:09;;;;;;;73.85;39.00;;;;;;;-6.67;81.85;99287.31;10410998;28;20086;-60
2022/01/13 19:36:08;;;;;;;86.72;42.78;;;;;;;-6.81;81.49;99259.19;10409645;28;20508;-60
2022/01/13 19:41:10;;;;;;;60.70;34.35;;;;;;;-6.68;81.50;99266.25;10425997;28;20098;-60
2022/01/13 19:46:10;;;;;;;73.10;39.85;;;;;;;-6.72;81.18;99260.00;10411014;28;20076;-60
2022/01/13 19:51:09;;;;;;;130.70;69.60;;;;;;;-6.80;81.26;99245.81;10410317;28;20056;-60
2022/01/13 19:56:08;;;;;;;94.63;48.45;;;;;;;-6.87;81.18;99248.53;10412259;28;20072;-60
2022/01/13 20:01:08;;;;;;;91.85;43.90;;;;;;;-7.09;81.73;99244.84;10410794;28;20075;-60
2022/01/13 20:06:06;;;;;;;90.65;45.60;;;;;;;-7.12;82.38;99229.44;10410690;28;20071;-60
2022/01/13 20:11:05;;;;;;;;;;;;;;;-7.07;82.54;99238.31;10410994;28;20144;-60
2022/01/13 20:16:04;;;;;;;110.50;54.00;;;;;;;-7.17;82.13;99226.50;10411381;28;20346;-60
2022/01/13 20:21:04;;;;;;;112.53;59.40;;;;;;;-7.16;82.31;99240.84;10408549;28;20067;-60
2022/01/13 20:26:03;;;;;;;108.45;55.78;;;;;;;-7.10;82.86;99261.63;10410349;28;20068;-60
2022/01/13 20:31:01;;;;;;;;;;;;;;;-7.08;82.18;99264.28;10410326;28;20064;-60
2022/01/13 20:36:03;;;;;;;114.90;57.90;;;;;;;-7.12;82.44;99258.06;10410330;28;19924;-60
2022/01/13 20:41:02;;;;;;;155.27;75.70;;;;;;;-7.07;82.29;99283.72;10406728;28;20063;-60
2022/01/13 20:46:01;;;;;;;177.13;87.50;;;;;;;-7.08;82.30;99276.91;10409806;28;20075;-60
2022/01/13 20:51:00;;;;;;;;;;;;;;;-7.11;82.52;99280.03;10406741;28;20072;-60
2022/01/13 20:55:59;;;;;;;86.47;44.40;;;;;;;-7.22;82.61;99273.09;10415238;28;19963;-60
2022/01/13 21:01:00;;;;;;;;;;;;;;;-7.17;82.20;99282.84;10415926;28;20106;-60
2022/01/13 21:05:59;;;;;;;63.63;28.58;;;;;;;-7.33;82.03;99284.72;10417912;28;20391;-60
2022/01/13 21:11:05;;;;;;;;;;;;;;;-7.43;81.79;99284.59;10417582;28;20423;-60
2022/01/13 21:16:09;;;;;;;69.30;33.97;;;;;;;-7.62;82.01;99250.13;10417643;28;19963;-60
2022/01/13 21:21:08;;;;;;;81.93;38.83;;;;;;;-7.49;82.27;99258.81;10417023;28;20056;-60
2022/01/13 21:26:07;;;;;;;;;;;;;;;-7.47;82.08;99267.41;10417817;28;20032;-60
2022/01/13 21:31:06;;;;;;;184.97;79.80;;;;;;;-7.49;82.56;99273.94;10407567;28;20472;-60
2022/01/13 21:36:06;;;;;;;119.15;58.05;;;;;;;-7.62;83.19;99289.56;10387099;28;20060;-60
2022/01/13 21:41:05;;;;;;;124.20;63.47;;;;;;;-7.68;83.08;99284.81;10415695;28;20583;-60
2022/01/13 21:46:05;;;;;;;114.78;59.17;;;;;;;-7.65;82.85;99302.75;10414895;28;20518;-60
2022/01/13 21:51:04;;;;;;;119.82;56.17;;;;;;;-7.68;82.88;99279.78;10415867;28;20067;-60
2022/01/13 21:56:04;;;;;;;96.72;49.05;;;;;;;-7.71;82.71;99274.44;10416368;28;20495;-60
2022/01/13 22:01:06;;;;;;;92.57;43.75;;;;;;;-7.72;83.25;99246.56;10413633;28;20090;-60
2022/01/13 22:06:05;;;;;;;96.05;43.83;;;;;;;-7.72;82.23;99229.84;10415495;28;20056;-60
2022/01/13 22:11:05;;;;;;;;;;;;;;;-7.76;82.47;99217.69;10416510;28;20032;-60
2022/01/13 22:16:05;;;;;;;91.25;41.05;;;;;;;-7.78;82.62;99214.13;10414453;28;19951;-60
2022/01/13 22:21:06;;;;;;;99.07;45.28;;;;;;;-7.76;82.56;99212.66;10388130;28;20064;-60
2022/01/13 22:26:05;;;;;;;114.28;52.97;;;;;;;-7.98;82.00;99161.00;10391112;28;20504;-60
2022/01/13 22:31:04;;;;;;;116.20;53.88;;;;;;;-7.73;82.89;99180.16;10413436;28;20080;-60
2022/01/13 22:36:03;;;;;;;;;;;;;;;-7.69;82.11;99179.72;10415268;28;20039;-60
2022/01/13 22:41:02;;;;;;;101.03;48.43;;;;;;;-7.69;82.17;99182.25;10409177;28;19921;-60
2022/01/13 22:46:01;;;;;;;114.53;59.08;;;;;;;-7.76;82.00;99174.84;10386069;28;20126;-60
2022/01/13 22:51:00;;;;;;;;;;;;;;;-7.85;82.46;99163.91;10414701;28;20087;-61
2022/01/13 22:55:59;;;;;;;99.73;49.70;;;;;;;-7.92;82.40;99152.38;10412927;28;19916;-60
2022/01/13 23:00:58;;;;;;;101.82;50.67;;;;;;;-7.98;81.82;99121.56;10409626;28;20040;-60
2022/01/13 23:05:57;;;;;;;;;;;;;;;-7.96;82.24;99134.31;10416442;28;20838;-61
2022/01/13 23:10:56;;;;;;;115.50;56.50;;;;;;;-8.03;82.40;99122.78;10411964;28;19994;-61
2022/01/13 23:26:31;;;;;;;90.68;43.53;;;;;;;-8.22;82.96;99125.22;10413859;28;20063;-60
2022/01/13 23:31:30;;;;;;;103.03;43.92;;;;;;;-8.26;83.50;99097.97;10412491;28;20076;-61
2022/01/13 23:36:29;;;;;;;80.13;36.45;;;;;;;-8.16;83.23;99100.63;10412409;28;20044;-61
2022/01/13 23:41:30;;;;;;;68.18;29.55;;;;;;;-8.15;82.54;99093.94;10414017;28;20066;-60
2022/01/13 23:51:48;;;;;;;57.13;26.75;;;;;;;-8.38;82.72;99100.22;10377478;28;20063;-61